No particular awareness of the weather is required.    There are no Weather-warnings


Meteo18 Weather Cam more information Meteo18 Weather Cam


Thunder radar more information blitzortung!


Rain radar more information rain snow radar


Visit our other weather sites:

Template documentation
and downloads

And another site



Weather Underground History page Text

Daily Summary for January 27, 2017 Units:  English    Metric   Both
« Previous Day
Next Day »
Daily Weekly Monthly Yearly Custom
  High: Low: Average:
Temperature: TemperatureC °F 0.9 °F 5.5 °F
Dew Point: DewpointC °F -1.3 °F 1.9 °F
Humidity: Humidity % 65 % 78 %
Wind Speed: WindSpeedKMH mph 0.0 mph 3.7 mph
Wind Gust: WindSpeedGustKMH mph - -
Wind:- - ESE
Pressure: PressurehPa in 1013.4 in -
Precipitation: 0.0 in    
Historical Graphs
 
 
Tabular Data for January 27, 2017
Time Temperature Dew Point Pressure Wind Wind Speed Wind Gust Humidity Rainfall Rate (Hourly)
TemperatureC °F DewpointC °F PressurehPa in Calm     Humidity % HourlyPrecipMM in
00:02 1.8 °F -0.3 °F 1015.5 in SSE 6.4 mph 27.4 mph 86 % 0.0 in
00:07 1.7 °F -0.4 °F 1015.1 in SE 4.8 mph 20.9 mph 86 % 0.0 in
00:17 1.3 °F -0.6 °F 1015.1 in East 3.2 mph 20.9 mph 87 % 0.0 in
00:22 1.3 °F -0.6 °F 1015.1 in SSE 6.4 mph 14.5 mph 87 % 0.0 in
00:32 1.2 °F -0.7 °F 1015.1 in Calm   19.3 mph 87 % 0.0 in
00:37 1.2 °F -0.9 °F 1015.1 in ESE 3.2 mph 19.3 mph 86 % 0.0 in
00:42 1.1 °F -1.0 °F 1015.1 in SE 1.6 mph 12.9 mph 86 % 0.0 in
00:57 0.9 °F -1.3 °F 1014.8 in Calm   11.3 mph 85 % 0.0 in
01:02 0.9 °F -1.2 °F 1014.8 in Calm   11.3 mph 86 % 0.0 in
01:07 0.9 °F -1.2 °F 1014.8 in Calm   11.3 mph 86 % 0.0 in
01:18 0.9 °F -1.3 °F 1014.8 in Calm   11.3 mph 85 % 0.0 in
01:22 0.9 °F -1.3 °F 1014.8 in SSE 1.6 mph 11.3 mph 85 % 0.0 in
01:27 0.9 °F -1.3 °F 1014.8 in SE 1.6 mph 9.7 mph 85 % 0.0 in
01:32 0.9 °F -1.3 °F 1014.8 in Calm   9.7 mph 85 % 0.0 in
01:37 0.9 °F -1.2 °F 1014.8 in SSE 4.8 mph 11.3 mph 86 % 0.0 in
01:42 1.1 °F -1.0 °F 1014.4 in South 6.4 mph 11.3 mph 86 % 0.0 in
01:47 1.1 °F -1.0 °F 1014.4 in SE 4.8 mph 14.5 mph 86 % 0.0 in
01:52 1.1 °F -1.1 °F 1014.4 in SE 1.6 mph 14.5 mph 85 % 0.0 in
02:02 1.2 °F -0.9 °F 1014.4 in SE 9.7 mph 9.7 mph 86 % 0.0 in
02:12 1.3 °F -0.8 °F 1014.4 in SE 4.8 mph 11.3 mph 86 % 0.0 in
02:17 1.4 °F -0.7 °F 1014.4 in SE 3.2 mph 14.5 mph 86 % 0.0 in
02:27 1.4 °F -0.5 °F 1014.4 in SE 4.8 mph 14.5 mph 87 % 0.0 in
02:32 1.4 °F -0.5 °F 1014.4 in ESE 1.6 mph 14.5 mph 87 % 0.0 in
02:37 1.3 °F -0.6 °F 1014.4 in ESE 6.4 mph 11.3 mph 87 % 0.0 in
02:42 1.3 °F -0.6 °F 1014.4 in SSE 1.6 mph 11.3 mph 87 % 0.0 in
02:47 1.3 °F -0.6 °F 1014.4 in Calm   9.7 mph 87 % 0.0 in
02:57 1.2 °F -0.6 °F 1014.4 in SSE 1.6 mph 6.4 mph 88 % 0.0 in
03:02 1.2 °F -0.6 °F 1014.1 in Calm   6.4 mph 88 % 0.0 in
03:07 1.2 °F -0.6 °F 1014.1 in Calm   6.4 mph 88 % 0.0 in
03:17 1.1 °F -0.7 °F 1014.1 in SE 3.2 mph 4.8 mph 88 % 0.0 in
03:22 1.1 °F -0.7 °F 1014.1 in SE 1.6 mph 4.8 mph 88 % 0.0 in
03:27 1.1 °F -0.5 °F 1013.8 in ESE 1.6 mph 4.8 mph 89 % 0.0 in
03:32 1.2 °F -0.6 °F 1013.8 in Calm   4.8 mph 88 % 0.0 in
03:42 1.2 °F -0.6 °F 1013.8 in Calm   8.0 mph 88 % 0.0 in
03:47 1.2 °F -0.6 °F 1013.8 in Calm   8.0 mph 88 % 0.0 in
03:52 1.2 °F -0.4 °F 1013.8 in SW 1.6 mph 8.0 mph 89 % 0.0 in
03:57 1.2 °F -0.4 °F 1013.8 in Calm   3.2 mph 89 % 0.0 in
04:02 1.1 °F -0.5 °F 1013.8 in Calm   3.2 mph 89 % 0.0 in
04:22 1.1 °F -0.5 °F 1013.4 in Calm   3.2 mph 89 % 0.0 in
04:27 1.2 °F -0.4 °F 1013.4 in Calm   3.2 mph 89 % 0.0 in
04:32 1.2 °F -0.4 °F 1013.8 in Calm   3.2 mph 89 % 0.0 in
04:37 1.2 °F -0.4 °F 1013.8 in Calm   1.6 mph 89 % 0.0 in
04:42 1.3 °F -0.2 °F 1013.8 in Calm   1.6 mph 90 % 0.0 in
04:52 1.3 °F -0.3 °F 1013.8 in Calm   1.6 mph 89 % 0.0 in
04:57 1.4 °F -0.2 °F 1013.8 in Calm   1.6 mph 89 % 0.0 in
05:02 1.4 °F -0.2 °F 1013.8 in Calm   1.6 mph 89 % 0.0 in
05:12 1.6 °F 0.0 °F 1013.8 in Calm     89 % 0.0 in
05:17 1.6 °F 0.0 °F 1013.8 in Calm     89 % 0.0 in
05:22 1.6 °F 0.0 °F 1013.8 in Calm   3.2 mph 89 % 0.0 in
05:27 1.5 °F -0.3 °F 1013.8 in Calm   3.2 mph 88 % 0.0 in
05:32 1.2 °F -0.4 °F 1013.8 in Calm   1.6 mph 89 % 0.0 in
05:42 1.4 °F -0.2 °F 1013.4 in Calm   1.6 mph 89 % 0.0 in
05:47 1.3 °F -0.3 °F 1013.4 in Calm   1.6 mph 89 % 0.0 in
05:52 1.2 °F -0.4 °F 1013.8 in Calm   1.6 mph 89 % 0.0 in
06:02 0.9 °F -0.6 °F 1013.8 in Calm   1.6 mph 90 % 0.0 in
06:07 0.9 °F -0.4 °F 1013.8 in SSE 3.2 mph 3.2 mph 91 % 0.0 in
06:12 1.2 °F -0.1 °F 1013.8 in Calm   4.8 mph 91 % 0.0 in
06:17 1.2 °F -0.3 °F 1013.8 in Calm   4.8 mph 90 % 0.0 in
06:27 1.4 °F -0.1 °F 1013.8 in SE 1.6 mph 4.8 mph 90 % 0.0 in
06:32 1.7 °F 0.2 °F 1013.8 in Calm   4.8 mph 90 % 0.0 in
06:42 1.9 °F 0.1 °F 1013.8 in ESE 1.6 mph 4.8 mph 88 % 0.0 in
06:52 1.9 °F 0.1 °F 1013.8 in Calm   3.2 mph 88 % 0.0 in
07:02 1.9 °F 0.3 °F 1013.8 in Calm   3.2 mph 89 % 0.0 in
07:12 1.8 °F -0.1 °F 1013.8 in SSW 1.6 mph 8.0 mph 87 % 0.0 in
07:17 1.9 °F 0.4 °F 1013.8 in SE 3.2 mph 8.0 mph 90 % 0.0 in
07:22 2.2 °F 0.4 °F 1013.8 in Calm   8.0 mph 88 % 0.0 in
07:27 2.2 °F 0.4 °F 1013.8 in Calm   8.0 mph 88 % 0.0 in
07:32 1.9 °F 0.0 °F 1013.8 in Calm   8.0 mph 87 % 0.0 in
07:37 1.8 °F 0.2 °F 1013.8 in SSW 3.2 mph 3.2 mph 89 % 0.0 in
07:42 2.0 °F 0.4 °F 1013.8 in Calm   3.2 mph 89 % 0.0 in
07:47 2.1 °F 0.5 °F 1013.8 in Calm   4.8 mph 89 % 0.0 in
07:52 2.1 °F 0.3 °F 1013.8 in Calm   4.8 mph 88 % 0.0 in
07:57 2.2 °F 0.6 °F 1014.1 in WSW 1.6 mph 3.2 mph 89 % 0.0 in
08:07 2.4 °F 0.8 °F 1013.8 in Calm   1.6 mph 89 % 0.0 in
08:12 2.5 °F 0.7 °F 1014.1 in ESE 1.6 mph 1.6 mph 88 % 0.0 in
08:17 2.8 °F 1.0 °F 1014.1 in Calm   3.2 mph 88 % 0.0 in
08:22 2.9 °F 1.0 °F 1014.1 in Calm   3.2 mph 87 % 0.0 in
08:27 2.9 °F 1.0 °F 1014.4 in Calm   3.2 mph 87 % 0.0 in
08:32 2.9 °F 1.0 °F 1014.4 in SE 1.6 mph 3.2 mph 87 % 0.0 in
08:42 3.1 °F 1.0 °F 1014.4 in Calm   4.8 mph 86 % 0.0 in
08:47 3.3 °F 1.2 °F 1014.4 in ESE 3.2 mph 4.8 mph 86 % 0.0 in
08:52 3.4 °F 1.3 °F 1014.4 in Calm   4.8 mph 86 % 0.0 in
09:02 3.6 °F 1.3 °F 1014.4 in Calm   3.2 mph 85 % 0.0 in
09:12 3.8 °F 1.5 °F 1014.4 in Calm   4.8 mph 85 % 0.0 in
09:17 3.9 °F 1.6 °F 1014.4 in Calm   1.6 mph 85 % 0.0 in
09:22 4.0 °F 1.7 °F 1014.4 in Calm   1.6 mph 85 % 0.0 in
09:32 4.2 °F 1.9 °F 1014.4 in Calm   1.6 mph 85 % 0.0 in
09:42 4.6 °F 2.1 °F 1014.4 in Calm   3.2 mph 84 % 0.0 in
09:47 4.6 °F 2.0 °F 1014.4 in Calm   4.8 mph 83 % 0.0 in
09:52 4.7 °F 2.1 °F 1014.4 in Calm   4.8 mph 83 % 0.0 in
10:02 4.9 °F 2.3 °F 1014.4 in Calm   4.8 mph 83 % 0.0 in
10:12 5.1 °F 2.5 °F 1014.4 in Calm   3.2 mph 83 % 0.0 in
10:22 5.3 °F 2.6 °F 1014.4 in SE 4.8 mph 6.4 mph 83 % 0.0 in
10:32 5.8 °F 3.0 °F 1014.4 in ESE 1.6 mph 9.7 mph 82 % 0.0 in
10:37 5.9 °F 3.1 °F 1014.4 in SE 4.8 mph 11.3 mph 82 % 0.0 in
10:42 6.3 °F 3.1 °F 1014.4 in SE 4.8 mph 11.3 mph 80 % 0.0 in
10:47 6.4 °F 3.2 °F 1014.4 in ESE 9.7 mph 17.7 mph 80 % 0.0 in
10:52 6.6 °F 3.4 °F 1014.4 in East 4.8 mph 17.7 mph 80 % 0.0 in
11:02 6.9 °F 3.5 °F 1014.4 in SE 14.5 mph 16.1 mph 79 % 0.0 in
11:12 7.2 °F 3.6 °F 1014.4 in SE 9.7 mph 19.3 mph 78 % 0.0 in
11:17 7.3 °F 3.5 °F 1014.4 in SSE 9.7 mph 25.7 mph 77 % 0.0 in
11:37 7.4 °F 3.8 °F 1014.4 in SE 9.7 mph 19.3 mph 78 % 0.0 in
11:42 7.4 °F 3.8 °F 1014.4 in SE 6.4 mph 19.3 mph 78 % 0.0 in
11:48 7.4 °F 3.8 °F 1014.4 in SE 8.0 mph 16.1 mph 78 % 0.0 in
11:57 7.4 °F 3.8 °F 1014.4 in SE 12.9 mph 19.3 mph 78 % 0.0 in
12:07 7.6 °F 4.0 °F 1014.4 in ESE 8.0 mph 17.7 mph 78 % 0.0 in
12:12 7.7 °F 4.1 °F 1014.4 in SE 3.2 mph 17.7 mph 78 % 0.0 in
12:22 7.9 °F 4.1 °F 1014.4 in SE 8.0 mph 17.7 mph 77 % 0.0 in
12:32 8.3 °F 4.1 °F 1014.1 in SE 14.5 mph 17.7 mph 75 % 0.0 in
12:42 8.7 °F 4.1 °F 1014.1 in ESE 8.0 mph 24.1 mph 73 % 0.0 in
12:52 8.9 °F 4.3 °F 1014.4 in SE 12.9 mph 22.5 mph 73 % 0.0 in
12:57 8.9 °F 4.1 °F 1014.1 in SE 6.4 mph 22.5 mph 72 % 0.0 in
13:02 9.1 °F 4.1 °F 1014.1 in ESE 6.4 mph 24.1 mph 71 % 0.0 in
13:12 9.1 °F 4.1 °F 1014.1 in SE 6.4 mph 24.1 mph 71 % 0.0 in
13:17 9.2 °F 4.2 °F 1014.1 in ESE 8.0 mph 24.1 mph 71 % 0.0 in
13:22 9.2 °F 4.4 °F 1014.1 in SE 11.3 mph 24.1 mph 72 % 0.0 in
13:27 9.2 °F 4.2 °F 1014.1 in SE 12.9 mph 24.1 mph 71 % 0.0 in
13:32 9.3 °F 4.1 °F 1014.1 in SSE 16.1 mph 22.5 mph 70 % 0.0 in
13:37 9.3 °F 4.1 °F 1014.1 in SE 8.0 mph 22.5 mph 70 % 0.0 in
13:47 9.4 °F 4.4 °F 1014.1 in ESE 20.9 mph 20.9 mph 71 % 0.0 in
13:52 9.4 °F 4.2 °F 1013.8 in ESE 12.9 mph 19.3 mph 70 % 0.0 in
13:57 9.4 °F 4.4 °F 1013.8 in SE 3.2 mph 20.9 mph 71 % 0.0 in
14:02 9.4 °F 4.2 °F 1014.1 in SE 6.4 mph 20.9 mph 70 % 0.0 in
14:07 9.4 °F 4.2 °F 1013.8 in SE 6.4 mph 16.1 mph 70 % 0.0 in
14:12 9.4 °F 4.2 °F 1013.8 in ESE 11.3 mph 16.1 mph 70 % 0.0 in
14:17 9.4 °F 4.2 °F 1013.8 in ESE 8.0 mph 16.1 mph 70 % 0.0 in
14:22 9.4 °F 4.2 °F 1013.8 in SE 4.8 mph 14.5 mph 70 % 0.0 in
14:27 9.5 °F 4.3 °F 1013.8 in SE 8.0 mph 14.5 mph 70 % 0.0 in
14:37 9.6 °F 4.2 °F 1013.8 in SE 9.7 mph 16.1 mph 69 % 0.0 in
14:42 9.7 °F 4.3 °F 1013.8 in SSE 6.4 mph 16.1 mph 69 % 0.0 in
14:52 9.9 °F 4.1 °F 1013.8 in SSE 8.0 mph 19.3 mph 67 % 0.0 in
15:02 10.1 °F 4.2 °F 1013.4 in SE 9.7 mph 19.3 mph 67 % 0.0 in
15:12 10.2 °F 4.1 °F 1013.4 in SE 4.8 mph 19.3 mph 66 % 0.0 in
15:17 10.1 °F 4.0 °F 1013.4 in SE 6.4 mph 22.5 mph 66 % 0.0 in
15:22 10.1 °F 4.0 °F 1013.4 in SE 9.7 mph 22.5 mph 66 % 0.0 in
15:27 10.1 °F 4.0 °F 1013.8 in ESE 9.7 mph 25.7 mph 66 % 0.0 in
15:32 10.2 °F 3.9 °F 1013.8 in SE 9.7 mph 25.7 mph 65 % 0.0 in
15:42 10.2 °F 3.9 °F 1013.8 in ESE 14.5 mph 24.1 mph 65 % 0.0 in
15:47 10.1 °F 4.0 °F 1013.8 in ESE 8.0 mph 24.1 mph 66 % 0.0 in
15:52 9.9 °F 3.8 °F 1013.8 in SE 11.3 mph 24.1 mph 66 % 0.0 in
15:57 9.9 °F 4.1 °F 1013.8 in ESE 8.0 mph 24.1 mph 67 % 0.0 in
16:02 9.8 °F 4.0 °F 1013.8 in ESE 9.7 mph 17.7 mph 67 % 0.0 in
16:12 9.6 °F 4.0 °F 1013.8 in East 4.8 mph 17.7 mph 68 % 0.0 in
16:17 9.3 °F 3.9 °F 1013.8 in ESE 4.8 mph 16.1 mph 69 % 0.0 in
16:22 9.2 °F 3.8 °F 1013.8 in SSE 1.6 mph 14.5 mph 69 % 0.0 in
16:27 9.1 °F 3.7 °F 1013.8 in East 3.2 mph 12.9 mph 69 % 0.0 in
16:32 9.0 °F 3.6 °F 1014.1 in East 4.8 mph 11.3 mph 69 % 0.0 in
16:37 8.9 °F 3.7 °F 1014.1 in East 3.2 mph 11.3 mph 70 % 0.0 in
16:42 8.8 °F 3.6 °F 1014.1 in ESE 1.6 mph 11.3 mph 70 % 0.0 in
16:47 8.7 °F 3.5 °F 1014.1 in East 4.8 mph 9.7 mph 70 % 0.0 in
16:57 8.6 °F 3.4 °F 1014.1 in ESE 3.2 mph 9.7 mph 70 % 0.0 in
17:02 8.5 °F 3.3 °F 1014.1 in ESE 6.4 mph 11.3 mph 70 % 0.0 in
17:12 8.4 °F 3.4 °F 1013.8 in ESE 3.2 mph 11.3 mph 71 % 0.0 in
17:17 8.4 °F 3.2 °F 1013.8 in SE 8.0 mph 9.7 mph 70 % 0.0 in
17:22 8.4 °F 3.2 °F 1013.8 in ESE 3.2 mph 11.3 mph 70 % 0.0 in
17:27 8.2 °F 3.3 °F 1014.1 in SE 3.2 mph 16.1 mph 71 % 0.0 in
17:32 8.0 °F 3.3 °F 1013.8 in East 4.8 mph 16.1 mph 72 % 0.0 in
17:37 7.9 °F 3.2 °F 1013.8 in East 6.4 mph 16.1 mph 72 % 0.0 in
17:42 7.9 °F 3.2 °F 1013.8 in ESE 4.8 mph 9.7 mph 72 % 0.0 in
17:47 7.8 °F 3.1 °F 1013.8 in SE 4.8 mph 11.3 mph 72 % 0.0 in
17:52 7.8 °F 3.1 °F 1014.1 in SE 4.8 mph 11.3 mph 72 % 0.0 in
18:02 7.8 °F 3.1 °F 1014.1 in SE 4.8 mph 12.9 mph 72 % 0.0 in
18:12 7.6 °F 2.9 °F 1014.1 in SE 4.8 mph 12.9 mph 72 % 0.0 in
18:17 7.7 °F 3.0 °F 1014.1 in East 8.0 mph 12.9 mph 72 % 0.0 in
18:22 7.6 °F 2.9 °F 1014.1 in SE 6.4 mph 16.1 mph 72 % 0.0 in
18:32 7.5 °F 3.0 °F 1014.4 in ESE 3.2 mph 16.1 mph 73 % 0.0 in
18:42 7.3 °F 2.8 °F 1014.4 in SE 4.8 mph 16.1 mph 73 % 0.0 in
18:47 7.2 °F 2.7 °F 1014.4 in ESE 4.8 mph 16.1 mph 73 % 0.0 in
18:57 7.0 °F 2.9 °F 1014.4 in ESE 6.4 mph 9.7 mph 75 % 0.0 in
19:02 7.1 °F 2.8 °F 1014.4 in East 3.2 mph 9.7 mph 74 % 0.0 in
19:12 7.1 °F 3.0 °F 1014.4 in East 3.2 mph 11.3 mph 75 % 0.0 in
19:17 7.1 °F 2.8 °F 1014.4 in East 4.8 mph 11.3 mph 74 % 0.0 in
19:22 7.2 °F 2.9 °F 1014.8 in ESE 3.2 mph 8.0 mph 74 % 0.0 in
19:27 7.2 °F 2.9 °F 1014.4 in ESE 1.6 mph 8.0 mph 74 % 0.0 in
19:32 7.2 °F 2.9 °F 1014.8 in ESE 1.6 mph 8.0 mph 74 % 0.0 in
19:37 7.3 °F 3.0 °F 1014.4 in ESE 3.2 mph 4.8 mph 74 % 0.0 in
19:42 7.4 °F 2.9 °F 1014.4 in East 1.6 mph 4.8 mph 73 % 0.0 in
19:47 7.7 °F 3.2 °F 1014.4 in ESE 4.8 mph 6.4 mph 73 % 0.0 in
19:52 7.9 °F 3.2 °F 1014.4 in East 3.2 mph 6.4 mph 72 % 0.0 in
19:57 7.8 °F 3.1 °F 1014.4 in ESE 1.6 mph 9.7 mph 72 % 0.0 in
20:02 7.6 °F 2.9 °F 1014.4 in Calm   9.7 mph 72 % 0.0 in
20:12 7.6 °F 3.1 °F 1014.8 in East 1.6 mph 9.7 mph 73 % 0.0 in
20:17 7.7 °F 3.0 °F 1014.8 in ESE 1.6 mph 6.4 mph 72 % 0.0 in
20:22 7.8 °F 2.9 °F 1014.8 in East 8.0 mph 8.0 mph 71 % 0.0 in
20:27 8.0 °F 2.9 °F 1014.8 in SE 4.8 mph 6.4 mph 70 % 0.0 in
20:32 8.0 °F 2.9 °F 1014.8 in Calm   9.7 mph 70 % 0.0 in
20:37 7.8 °F 2.7 °F 1014.8 in Calm   9.7 mph 70 % 0.0 in
20:42 7.5 °F 2.6 °F 1014.8 in ENE 1.6 mph 9.7 mph 71 % 0.0 in
20:47 7.3 °F 2.6 °F 1014.4 in ENE 4.8 mph 9.7 mph 72 % 0.0 in
20:52 7.4 °F 2.7 °F 1014.4 in East 1.6 mph 6.4 mph 72 % 0.0 in
20:57 7.3 °F 2.6 °F 1014.4 in East 3.2 mph 6.4 mph 72 % 0.0 in
21:02 7.4 °F 2.7 °F 1014.4 in ESE 1.6 mph 6.4 mph 72 % 0.0 in
21:07 7.4 °F 2.7 °F 1014.4 in ESE 1.6 mph 6.4 mph 72 % 0.0 in
21:12 7.4 °F 2.7 °F 1014.4 in ENE 4.8 mph 6.4 mph 72 % 0.0 in
21:17 7.4 °F 2.5 °F 1014.4 in ESE 3.2 mph 11.3 mph 71 % 0.0 in
21:22 7.3 °F 2.6 °F 1014.4 in ESE 1.6 mph 11.3 mph 72 % 0.0 in
21:27 7.2 °F 2.5 °F 1014.4 in SE 3.2 mph 11.3 mph 72 % 0.0 in
21:32 7.2 °F 2.5 °F 1014.4 in East 1.6 mph 11.3 mph 72 % 0.0 in
21:37 7.2 °F 2.5 °F 1014.4 in SE 1.6 mph 11.3 mph 72 % 0.0 in
21:42 7.2 °F 2.5 °F 1014.4 in ESE 1.6 mph 11.3 mph 72 % 0.0 in
21:47 7.2 °F 2.5 °F 1014.4 in East 1.6 mph 6.4 mph 72 % 0.0 in
21:52 7.2 °F 2.5 °F 1014.4 in East 3.2 mph 6.4 mph 72 % 0.0 in
21:57 7.2 °F 2.5 °F 1014.4 in ESE 1.6 mph 6.4 mph 72 % 0.0 in
22:02 7.2 °F 2.3 °F 1014.4 in ESE 1.6 mph 6.4 mph 71 % 0.0 in
22:12 7.5 °F 2.4 °F 1014.4 in ESE 4.8 mph 6.4 mph 70 % 0.0 in
22:17 7.6 °F 2.3 °F 1014.4 in East 1.6 mph 8.0 mph 69 % 0.0 in
22:22 7.7 °F 2.4 °F 1014.8 in ESE 1.6 mph 8.0 mph 69 % 0.0 in
22:27 7.8 °F 2.3 °F 1014.8 in East 8.0 mph 8.0 mph 68 % 0.0 in
22:32 7.9 °F 2.2 °F 1014.8 in East 4.8 mph 9.7 mph 67 % 0.0 in
22:37 8.0 °F 2.2 °F 1014.8 in East 4.8 mph 9.7 mph 67 % 0.0 in
22:42 8.1 °F 2.3 °F 1014.8 in East 4.8 mph 9.7 mph 67 % 0.0 in
22:52 8.1 °F 2.3 °F 1014.4 in ESE 1.6 mph 11.3 mph 67 % 0.0 in
22:57 8.0 °F 2.2 °F 1014.4 in SE 3.2 mph 11.3 mph 67 % 0.0 in
23:02 7.9 °F 2.4 °F 1014.4 in East 3.2 mph 9.7 mph 68 % 0.0 in
23:07 7.9 °F 2.4 °F 1014.4 in SE 3.2 mph 9.7 mph 68 % 0.0 in
23:12 8.1 °F 2.3 °F 1014.4 in ESE 4.8 mph 9.7 mph 67 % 0.0 in
23:17 8.1 °F 2.3 °F 1014.4 in ESE 4.8 mph 9.7 mph 67 % 0.0 in
23:22 8.2 °F 2.4 °F 1014.4 in East 3.2 mph 9.7 mph 67 % 0.0 in
23:27 8.2 °F 2.2 °F 1014.8 in East 6.4 mph 9.7 mph 66 % 0.0 in
23:32 8.2 °F 2.4 °F 1014.8 in East 3.2 mph 9.7 mph 67 % 0.0 in
23:37 8.2 °F 2.4 °F 1014.8 in ESE 3.2 mph 9.7 mph 67 % 0.0 in
23:52 7.8 °F 2.3 °F 1014.4 in ENE 4.8 mph 12.9 mph 68 % 0.0 in
23:57 7.8 °F 2.3 °F 1014.4 in ENE 3.2 mph 9.7 mph 68 % 0.0 in
Meteo18
Compliments of Weather Underground - 4 mb

Script developed by  Jim McMurry - jmcmurry@mwt.net Adapted for the template by  Wim van der Kuil - Leuven-Template.eu

You find our weather info also at:

European Weather Network

Weather Underground

Equipment we use:

Weather-station
Davis Vue

Weather-program
Meteobridge

Weather-server
Raspberry PI 2 B+

Provider
1 and 1

Davis Vue

Meteobridge

Raspberry PI 2 B+

1 and 1